Witamy     NOTAM     FEEDBACK     Informacje     Wydarzenia     O nas      FIR Warszawa      Kontrolerzy     Piloci     Lotniska     Pliki     Linki     Forum    

Poznań-Krzesiny

Lotnisko Poznań-Krzesiny to lotnisko wojskowe zlokalizowane na południowy wschód od Poznania. Jest siedzibą 31. Bazy Totnictwa Taktycznego Sił Powietrznych Rzeczypospolitej Polskiej korzystającej z samolotów F-16.

W sieci VATSIM jest to lotnisko niekontrolowane, z wyjątkiem specjalnych wydarzeń, kiedy to otwierana tam jest pozycja PAR (Precision Approach Radar).

Lotnisko posiada jeden pas startowy o długości 2500m i oznaczeniu 11/29.

Mapy [11]
NOTAM [1]
 ID Obowiązuje od Obowiązuje do Wiadomość
  A0068/18  2018-04-26
00:00
PERM MCTR EPKS AIRSPACE CLASS CHANGED TO D.

NOTAMs are maintained by Operational Officer (ACCPL3) of Polish VACC. VATSIM use only. Interface is provided by euroutepro.com
Scenerie [1]
 Typ pliku   Wersja Rozmiar
pointer  EPKS Poznań Krzesiny [FS9/FSX] DEC 2011 2.3 mb
Pozycje ATC
 Pozycja ATC Częstotliwość Callsign
 Krzesiny Wieża 121.020 EPKS_TWR
 Krzesiny Precision [PAR] 120.750 EPKS_P_APP
Pogoda

METAR: EPKS 181500Z 12011KT 070V150 9999 SCT060 BKN200 27/12 Q1017 RMK 266 040 5/3=

Raport TAF dla tego lotniska jest niedostepny lub bardzo nieaktualny.


METARs by VATSIM.net. TAFs by NOAA.gov
Aktualny ruch
Przyloty
-------------
Odloty
-------------
 
© 2001 Polish VACC
[logowanie]